Time;durP1;ratioP1;P1;durP2;ratioP2;P2;SDS_P1;SDS_P2;PMS_P1;PMS_P2;Temp;Humidity;BMP_temperature;BMP_pressure;BME280_temperature;BME280_humidity;BME280_pressure;Samples;Min_cycle;Max_cycle;Signal;HPM_P1;HPM_P2
2022/10/01 00:04:04;;;;;;;7.77;7.07;;;;;10.80;98651.00;;;;16628527;28;20353;-47
2022/10/01 00:12:07;;;;;;;8.70;7.87;;;;;10.60;98676.00;;;;16630930;28;20219;-47
2022/10/01 00:20:11;;;;;;;8.43;7.70;;;;;11.10;98645.00;;;;16642875;28;20206;-47
2022/10/01 00:28:17;;;;;;;8.30;7.50;;;;;11.40;98638.00;;;;16631535;28;20222;-46
2022/10/01 00:36:19;;;;;;;8.40;7.67;;;;;10.30;98656.00;;;;16625073;28;20630;-48
2022/10/01 00:44:34;;;;;;;7.53;6.50;;;;;10.40;98654.00;;;;16628156;28;20221;-47
2022/10/01 00:52:39;;;;;;;7.23;6.53;;;;;10.40;98640.00;;;;16626546;28;20226;-48
2022/10/01 01:00:43;;;;;;;7.93;7.23;;;;;10.30;98658.00;;;;16630198;28;20214;-48
2022/10/01 01:08:53;;;;;;;6.20;5.70;;;;;11.50;98651.00;;;;16623838;28;20227;-47
2022/10/01 01:17:01;;;;;;;8.83;8.03;;;;;11.60;98635.00;;;;16630902;28;20222;-47
2022/10/01 01:25:08;;;;;;;6.80;6.20;;;;;10.70;98632.00;;;;16635326;28;20211;-47
2022/10/01 01:33:16;;;;;;;6.57;5.97;;;;;11.10;98623.00;;;;16630396;28;20805;-49
2022/10/01 01:41:20;;;;;;;12.40;10.77;;;;;11.70;98608.00;;;;16625771;28;20203;-48
2022/10/01 01:49:24;;;;;;;11.20;10.20;;;;;11.70;98573.00;;;;16637880;28;20221;-47
2022/10/01 01:57:27;;;;;;;10.47;9.43;;;;;11.80;98575.00;;;;16703054;22;20236;-48
2022/10/01 02:05:37;;;;;;;11.33;8.97;;;;;12.00;98569.00;;;;16683492;28;20225;-48
2022/10/01 02:13:49;;;;;;;10.13;9.13;;;;;11.80;98548.00;;;;16651574;28;20280;-49
2022/10/01 02:21:59;;;;;;;9.53;8.63;;;;;11.90;98558.00;;;;16648900;28;20590;-48
2022/10/01 02:30:06;;;;;;;10.53;9.40;;;;;11.70;98557.00;;;;16650131;28;20626;-49
2022/10/01 02:38:10;;;;;;;11.43;10.37;;;;;11.80;98559.00;;;;16652543;28;20222;-48
2022/10/01 02:46:16;;;;;;;10.80;9.80;;;;;11.70;98565.00;;;;16652427;28;20738;-48
2022/10/01 02:54:25;;;;;;;13.37;10.83;;;;;11.60;98562.00;;;;16654071;28;20225;-48
2022/10/01 03:02:31;;;;;;;11.33;10.30;;;;;11.70;98546.00;;;;16653735;28;20315;-48
2022/10/01 03:10:35;;;;;;;11.37;10.23;;;;;11.80;98546.00;;;;16660473;28;20288;-49
2022/10/01 03:18:37;;;;;;;11.97;10.87;;;;;11.80;98544.00;;;;16658735;28;20231;-49
2022/10/01 03:26:41;;;;;;;12.17;10.90;;;;;11.70;98526.00;;;;16664377;28;20232;-49
2022/10/01 03:34:44;;;;;;;10.70;9.70;;;;;11.40;98519.00;;;;16653412;28;20601;-49
2022/10/01 03:42:48;;;;;;;14.43;10.37;;;;;11.40;98527.00;;;;16658939;28;20216;-49
2022/10/01 03:50:55;;;;;;;9.77;8.77;;;;;11.60;98514.00;;;;16667157;28;20214;-49
2022/10/01 03:58:58;;;;;;;14.97;10.20;;;;;11.50;98509.00;;;;16670269;28;20229;-49
2022/10/01 04:07:01;;;;;;;11.40;10.20;;;;;11.30;98495.00;;;;16667581;28;20226;-48
2022/10/01 04:15:05;;;;;;;10.03;9.03;;;;;11.40;98501.00;;;;16662512;28;20257;-48
2022/10/01 04:23:07;;;;;;;11.47;10.37;;;;;11.30;98484.00;;;;16677637;28;20942;-48
2022/10/01 04:31:26;;;;;;;11.43;9.93;;;;;11.30;98496.00;;;;16675724;28;20216;-48
2022/10/01 04:39:28;;;;;;;11.23;10.00;;;;;11.40;98477.00;;;;16660953;28;20198;-48
2022/10/01 04:47:32;;;;;;;9.83;8.83;;;;;11.60;98483.00;;;;16670726;28;20230;-49
2022/10/01 04:55:34;;;;;;;9.63;8.47;;;;;11.70;98477.00;;;;16628849;28;20312;-48
2022/10/01 05:03:38;;;;;;;7.80;7.10;;;;;11.90;98474.00;;;;16630480;28;20823;-49
2022/10/01 05:11:41;;;;;;;6.23;5.70;;;;;11.90;98479.00;;;;16631732;28;20223;-48
2022/10/01 05:19:45;;;;;;;6.40;5.80;;;;;12.10;98477.00;;;;16639719;28;20285;-48
2022/10/01 05:27:47;;;;;;;14.33;5.40;;;;;15.30;98454.00;;;;16634908;28;20231;-47
2022/10/01 05:35:51;;;;;;;5.37;4.80;;;;;16.40;98435.00;;;;16643393;28;20221;-47
2022/10/01 05:43:54;;;;;;;4.33;3.93;;;;;13.60;98444.00;;;;16623508;28;20232;-48
2022/10/01 05:51:59;;;;;;;4.57;4.17;;;;;12.90;98447.00;;;;16611476;28;20687;-48
2022/10/01 06:00:02;;;;;;;5.37;4.87;;;;;12.70;98435.00;;;;16610942;28;20201;-48
2022/10/01 06:08:15;;;;;;;5.57;5.03;;;;;12.70;98417.00;;;;16613745;28;20222;-48
2022/10/01 06:16:19;;;;;;;5.40;4.90;;;;;12.70;98398.00;;;;16624903;28;20249;-49
2022/10/01 06:24:24;;;;;;;5.57;5.00;;;;;12.60;98381.00;;;;16627506;28;20254;-48
2022/10/01 06:32:26;;;;;;;6.70;6.03;;;;;12.60;98375.00;;;;16604821;28;20238;-49
2022/10/01 06:40:31;;;;;;;6.80;4.80;;;;;12.50;98373.00;;;;16614383;28;20569;-49
2022/10/01 06:48:35;;;;;;;6.10;5.50;;;;;12.50;98363.00;;;;16619121;28;20633;-49
2022/10/01 06:56:38;;;;;;;8.40;4.97;;;;;12.60;98369.00;;;;16622781;28;20234;-47
2022/10/01 07:04:41;;;;;;;7.23;4.50;;;;;12.80;98378.00;;;;16627459;28;20225;-47
2022/10/01 07:12:47;;;;;;;5.23;4.73;;;;;12.80;98383.00;;;;16652975;28;20224;-48
2022/10/01 07:20:50;;;;;;;4.20;3.90;;;;;13.10;98381.00;;;;16652859;28;20228;-48
2022/10/01 07:28:54;;;;;;;4.80;4.40;;;;;13.10;98381.00;;;;16634899;28;20226;-48
2022/10/01 07:36:56;;;;;;;4.27;3.93;;;;;13.10;98369.00;;;;16629391;28;20223;-48
2022/10/01 07:45:02;;;;;;;4.63;4.20;;;;;13.00;98348.00;;;;16631382;28;20231;-48
2022/10/01 07:53:04;;;;;;;4.03;3.67;;;;;13.20;98352.00;;;;16644499;28;20223;-48
2022/10/01 08:01:08;;;;;;;6.40;4.40;;;;;16.20;98341.00;;;;16621206;28;20205;-50
2022/10/01 08:09:11;;;;;;;11.00;3.40;;;;;16.20;98345.00;;;;16612003;28;20218;-49
2022/10/01 08:17:15;;;;;;;5.83;4.00;;;;;16.40;98336.00;;;;16631318;28;20710;-49
2022/10/01 08:25:17;;;;;;;2.83;2.63;;;;;14.50;98351.00;;;;16655553;22;20614;-49
2022/10/01 08:33:21;;;;;;;4.33;2.63;;;;;14.20;98362.00;;;;16633767;28;20637;-49
2022/10/01 08:41:32;;;;;;;2.23;2.07;;;;;14.30;98378.00;;;;16546044;28;20206;-49
2022/10/01 08:49:41;;;;;;;2.23;2.03;;;;;14.50;98384.00;;;;16540706;28;20822;-49
2022/10/01 08:57:48;;;;;;;3.27;2.97;;;;;14.60;98371.00;;;;16547587;28;20233;-49
2022/10/01 09:06:03;;;;;;;3.00;2.60;;;;;14.40;98380.00;;;;16549796;28;20220;-47
2022/10/01 09:14:32;;;;;;;2.30;1.90;;;;;14.40;98378.00;;;;16554670;28;20356;-47
2022/10/01 09:22:40;;;;;;;2.00;1.90;;;;;14.80;98392.00;;;;16563852;28;20197;-48
2022/10/01 09:30:45;;;;;;;4.93;2.50;;;;;15.10;98393.00;;;;16556441;28;20222;-49
2022/10/01 09:38:56;;;;;;;2.77;2.57;;;;;14.70;98400.00;;;;16562393;28;20598;-49
2022/10/01 09:46:59;;;;;;;1.97;1.53;;;;;14.60;98402.00;;;;16576042;28;20226;-47
2022/10/01 09:55:05;;;;;;;2.83;1.80;;;;;14.70;98402.00;;;;16582713;28;20229;-49
2022/10/01 10:03:07;;;;;;;2.07;1.97;;;;;14.80;98403.00;;;;16573809;28;20221;-49
2022/10/01 10:11:19;;;;;;;6.40;2.90;;;;;15.70;98404.00;;;;16574990;28;20692;-48
2022/10/01 10:19:24;;;;;;;6.00;2.80;;;;;18.30;98403.00;;;;16579871;28;20305;-48
2022/10/01 10:27:29;;;;;;;22.37;4.67;;;;;18.40;98393.00;;;;16579288;28;20269;-47
2022/10/01 10:35:32;;;;;;;16.43;5.83;;;;;18.20;98416.00;;;;16575900;28;20233;-46
2022/10/01 10:43:38;;;;;;;12.10;6.07;;;;;18.30;98406.00;;;;16564063;28;20227;-48
2022/10/01 10:51:52;;;;;;;6.10;3.77;;;;;18.30;98387.00;;;;16558129;28;20229;-47
2022/10/01 10:59:58;;;;;;;9.87;4.00;;;;;18.30;98379.00;;;;16553121;28;20234;-46
2022/10/01 11:08:03;;;;;;;4.77;2.93;;;;;18.90;98374.00;;;;16551763;28;20220;-47
2022/10/01 11:16:20;;;;;;;10.67;3.00;;;;;19.30;98367.00;;;;16548713;28;20580;-48
2022/10/01 11:24:55;;;;;;;6.57;1.83;;;;;19.10;98376.00;;;;16549489;28;20389;-47
2022/10/01 11:33:04;;;;;;;4.73;2.20;;;;;18.90;98364.00;;;;16557962;28;20319;-47
2022/10/01 11:41:20;;;;;;;5.17;1.87;;;;;18.40;98379.00;;;;16573110;28;20214;-47
2022/10/01 11:49:40;;;;;;;2.90;1.70;;;;;18.80;98396.00;;;;16574299;28;20234;-47
2022/10/01 12:06:08;;;;;;;1.83;0.97;;;;;19.10;98414.00;;;;16581016;28;20222;-47
2022/10/01 12:14:12;;;;;;;1.10;0.80;;;;;18.10;98428.00;;;;16574181;28;20249;-47
2022/10/01 12:22:21;;;;;;;1.23;1.00;;;;;18.50;98438.00;;;;16582995;28;20992;-47
2022/10/01 12:30:28;;;;;;;1.37;1.10;;;;;17.50;98451.00;;;;16573811;28;20741;-48
2022/10/01 12:38:44;;;;;;;0.80;0.80;;;;;17.60;98454.00;;;;16563988;28;20605;-48
2022/10/01 12:46:52;;;;;;;0.80;0.80;;;;;17.30;98461.00;;;;16577223;28;20219;-48
2022/10/01 12:55:19;;;;;;;2.23;0.83;;;;;17.20;98471.00;;;;16571092;28;20231;-48
2022/10/01 13:03:36;;;;;;;1.00;1.00;;;;;16.70;98473.00;;;;16571967;28;21115;-48
2022/10/01 13:12:01;;;;;;;1.10;1.00;;;;;17.20;98477.00;;;;16572134;28;20223;-48
2022/10/01 13:20:09;;;;;;;2.17;1.10;;;;;17.30;98469.00;;;;16572497;28;20223;-48
2022/10/01 13:28:18;;;;;;;1.47;1.17;;;;;17.70;98456.00;;;;16559635;28;20227;-48
2022/10/01 13:36:29;;;;;;;0.93;0.93;;;;;18.70;98445.00;;;;16564583;28;20309;-48
2022/10/01 13:44:34;;;;;;;6.40;5.30;;;;;18.40;98449.00;;;;16562313;28;20765;-46
2022/10/01 13:52:37;;;;;;;4.70;2.03;;;;;20.30;98456.00;;;;16572012;28;20848;-48
2022/10/01 14:00:49;;;;;;;6.97;3.70;;;;;19.90;98445.00;;;;16565235;28;20686;-48
2022/10/01 14:08:59;;;;;;;1.93;1.73;;;;;19.30;98451.00;;;;16548976;28;20219;-47
2022/10/01 14:17:03;;;;;;;3.20;1.57;;;;;19.40;98451.00;;;;16546739;28;20238;-47
2022/10/01 14:25:25;;;;;;;1.10;1.00;;;;;19.50;98446.00;;;;16549697;28;20219;-48
2022/10/01 14:33:46;;;;;;;0.90;0.80;;;;;19.10;98445.00;;;;16559876;28;20236;-48
2022/10/01 14:41:50;;;;;;;3.07;1.30;;;;;19.10;98434.00;;;;16564505;28;20337;-50
2022/10/01 14:49:55;;;;;;;2.47;0.90;;;;;18.70;98440.00;;;;16577847;28;20757;-48
2022/10/01 14:57:58;;;;;;;0.90;0.90;;;;;18.50;98442.00;;;;16578789;28;20723;-49
2022/10/01 15:06:09;;;;;;;3.30;1.03;;;;;18.20;98467.00;;;;16579580;28;20711;-48
2022/10/01 15:14:15;;;;;;;1.33;1.00;;;;;18.80;98472.00;;;;16567107;28;20234;-48
2022/10/01 15:22:21;;;;;;;1.90;1.20;;;;;18.00;98477.00;;;;16562838;28;20573;-49
2022/10/01 15:30:26;;;;;;;4.20;3.47;;;;;17.90;98498.00;;;;16577089;28;20237;-48
2022/10/01 15:38:31;;;;;;;1.83;1.33;;;;;18.00;98491.00;;;;16587171;28;20238;-48
2022/10/01 15:46:34;;;;;;;1.13;1.00;;;;;18.60;98494.00;;;;16570346;28;20221;-48
2022/10/01 15:54:39;;;;;;;0.90;0.90;;;;;18.50;98500.00;;;;16563232;28;20730;-49
2022/10/01 16:02:45;;;;;;;1.00;0.90;;;;;18.50;98524.00;;;;16567618;28;20195;-49
2022/10/01 16:11:07;;;;;;;1.43;1.00;;;;;18.40;98530.00;;;;16569125;28;20207;-48
2022/10/01 16:19:22;;;;;;;1.53;1.37;;;;;18.10;98549.00;;;;16582436;28;20223;-48
2022/10/01 16:27:28;;;;;;;4.20;1.70;;;;;17.90;98557.00;;;;16564605;28;20290;-49
2022/10/01 16:35:34;;;;;;;1.77;1.07;;;;;18.10;98571.00;;;;16579029;28;20314;-48
2022/10/01 16:43:38;;;;;;;1.93;1.10;;;;;17.70;98566.00;;;;16564380;28;20310;-49
2022/10/01 16:51:41;;;;;;;3.00;2.00;;;;;17.40;98572.00;;;;16574933;28;20230;-48
2022/10/01 16:59:45;;;;;;;1.30;1.20;;;;;17.70;98593.00;;;;16551703;28;20804;-48
2022/10/01 17:07:47;;;;;;;2.30;1.60;;;;;17.80;98608.00;;;;16558410;28;20223;-49
2022/10/01 17:15:52;;;;;;;2.00;1.57;;;;;17.60;98617.00;;;;16562284;28;20602;-49
2022/10/01 17:23:54;;;;;;;9.33;4.67;;;;;19.00;98612.00;;;;16574931;28;20234;-46
2022/10/01 17:31:58;;;;;;;9.33;4.90;;;;;19.10;98629.00;;;;16575157;28;20219;-46
2022/10/01 17:40:01;;;;;;;5.03;3.90;;;;;19.60;98641.00;;;;16555182;28;20669;-45
2022/10/01 17:48:05;;;;;;;3.50;2.77;;;;;20.30;98648.00;;;;16576686;28;20223;-47
2022/10/01 17:56:09;;;;;;;2.57;2.37;;;;;20.00;98658.00;;;;16564047;28;20219;-47
2022/10/01 18:04:12;;;;;;;1.60;1.50;;;;;18.40;98673.00;;;;16572815;28;20227;-49
2022/10/01 18:12:15;;;;;;;3.23;2.43;;;;;17.90;98704.00;;;;16558411;28;20223;-49
2022/10/01 18:20:19;;;;;;;1.83;1.73;;;;;17.70;98709.00;;;;16564104;28;20223;-49
2022/10/01 18:28:22;;;;;;;2.73;2.43;;;;;17.70;98726.00;;;;16550390;28;20231;-49
2022/10/01 18:36:35;;;;;;;1.63;1.53;;;;;17.40;98730.00;;;;16541316;28;20235;-48
2022/10/01 18:44:38;;;;;;;2.20;1.60;;;;;17.70;98763.00;;;;16551502;28;20223;-48
2022/10/01 18:52:51;;;;;;;2.80;1.70;;;;;16.70;98793.00;;;;16561305;28;20219;-49
2022/10/01 19:01:00;;;;;;;2.47;1.80;;;;;16.50;98813.00;;;;16566785;28;20887;-48
2022/10/01 19:09:15;;;;;;;4.83;2.93;;;;;16.70;98816.00;;;;16574788;28;20219;-48
2022/10/01 19:17:28;;;;;;;2.47;1.90;;;;;16.30;98834.00;;;;16571862;28;20977;-48
2022/10/01 19:25:37;;;;;;;2.17;1.80;;;;;16.20;98846.00;;;;16560655;28;20231;-49
2022/10/01 19:33:44;;;;;;;2.97;2.13;;;;;16.90;98854.00;;;;16572743;28;20226;-49
2022/10/01 19:41:53;;;;;;;2.50;2.30;;;;;16.60;98868.00;;;;16575676;28;20198;-48
2022/10/01 19:49:58;;;;;;;4.47;3.17;;;;;17.10;98874.00;;;;16572187;28;20219;-49
2022/10/01 19:58:02;;;;;;;6.60;4.67;;;;;16.80;98888.00;;;;16590220;28;20297;-49
2022/10/01 20:06:08;;;;;;;3.80;3.27;;;;;17.00;98887.00;;;;16576472;28;20740;-49
2022/10/01 20:22:57;;;;;;;4.13;2.90;;;;;16.20;98908.00;;;;16568597;28;20210;-48
2022/10/01 20:31:05;;;;;;;5.97;3.73;;;;;16.60;98943.00;;;;16574701;28;20594;-49
2022/10/01 20:39:16;;;;;;;3.00;2.50;;;;;17.00;98935.00;;;;16558436;28;20231;-48
2022/10/01 20:47:23;;;;;;;8.77;2.93;;;;;16.60;98937.00;;;;16560648;28;20223;-48
2022/10/01 20:55:37;;;;;;;4.20;2.50;;;;;15.90;98955.00;;;;16555155;28;20224;-48
2022/10/01 21:03:44;;;;;;;7.67;2.33;;;;;16.30;98968.00;;;;16559273;28;20230;-48
2022/10/01 21:11:49;;;;;;;3.20;2.30;;;;;16.90;98963.00;;;;16563464;28;20212;-48
2022/10/01 21:20:12;;;;;;;4.00;2.20;;;;;17.10;98974.00;;;;16555643;28;20365;-48
2022/10/01 21:28:32;;;;;;;4.00;2.33;;;;;17.10;98990.00;;;;16551003;28;20314;-48
2022/10/01 21:36:39;;;;;;;7.63;3.03;;;;;16.40;99007.00;;;;16551492;28;20234;-49
2022/10/01 21:45:02;;;;;;;3.87;1.93;;;;;16.00;99011.00;;;;16581473;28;20237;-48
2022/10/01 21:53:33;;;;;;;2.77;2.57;;;;;15.90;99058.00;;;;16574203;28;20743;-48
2022/10/01 22:01:49;;;;;;;3.80;2.20;;;;;15.80;99053.00;;;;16580514;28;20208;-48
2022/10/01 22:10:01;;;;;;;9.80;2.30;;;;;16.30;99049.00;;;;16580660;28;20235;-48
2022/10/01 22:18:05;;;;;;;5.23;2.53;;;;;16.60;99075.00;;;;16572057;28;20236;-48
2022/10/01 22:26:14;;;;;;;7.33;2.70;;;;;16.60;99091.00;;;;16575151;28;20234;-48
2022/10/01 22:34:20;;;;;;;4.30;2.80;;;;;16.40;99077.00;;;;16580148;28;20227;-48
2022/10/01 22:42:27;;;;;;;4.03;2.10;;;;;16.60;99087.00;;;;16576593;28;20219;-49
2022/10/01 22:50:41;;;;;;;3.03;2.20;;;;;16.50;99094.00;;;;16580275;28;20223;-48
2022/10/01 22:58:56;;;;;;;3.10;2.00;;;;;17.00;99099.00;;;;16573549;28;20231;-48
2022/10/01 23:07:04;;;;;;;3.70;1.90;;;;;17.00;99099.00;;;;16573734;28;20230;-48
2022/10/01 23:15:18;;;;;;;3.50;2.50;;;;;17.30;99094.00;;;;16575538;28;20231;-48
2022/10/01 23:23:29;;;;;;;4.93;2.90;;;;;16.90;99110.00;;;;16549640;28;20314;-48
2022/10/01 23:31:37;;;;;;;2.57;2.37;;;;;16.70;99111.00;;;;16567528;28;20856;-48
2022/10/01 23:39:49;;;;;;;5.50;2.80;;;;;16.80;99135.00;;;;16577544;28;20225;-48
2022/10/01 23:48:00;;;;;;;6.70;3.30;;;;;16.80;99147.00;;;;16574709;28;20215;-48
